Terminal Aerodrome Forecast
Issued by NWS Tulsa, OK

Home | Current Version | Previous Version | Text Only | Print | Product List | Glossary On
Versions: 1 2 3 4 5 6 7 8 9 10 11 12 13 14 15 16
000
FTUS44 KTSA 301700
TAFTUL
TAF
KTUL 301723Z 3018/3118 31012KT P6SM OVC015
     FM302200 01009KT P6SM BKN025
     FM310300 02006KT P6SM BKN015
      TEMPO 3111/3115 BKN008
     FM311500 02007KT P6SM BKN025=

USA.gov is the U.S. government's official web portal to all federal, state and local government web resources and services.